sensor_id;sensor_type;location;lat;lon;timestamp;temperature;humidity
61912;DHT22;49973;52.084;5.412;2023-12-29T00:00:26;11.00;99.90
61912;DHT22;49973;52.084;5.412;2023-12-29T00:02:54;11.00;99.90
61912;DHT22;49973;52.084;5.412;2023-12-29T00:05:24;11.20;99.90
61912;DHT22;49973;52.084;5.412;2023-12-29T00:07:54;11.10;99.90
61912;DHT22;49973;52.084;5.412;2023-12-29T00:10:22;11.20;99.90
61912;DHT22;49973;52.084;5.412;2023-12-29T00:12:51;11.20;99.90
61912;DHT22;49973;52.084;5.412;2023-12-29T00:15:20;11.20;99.90
61912;DHT22;49973;52.084;5.412;2023-12-29T00:17:49;11.20;99.90
61912;DHT22;49973;52.084;5.412;2023-12-29T00:20:17;11.20;99.90
61912;DHT22;49973;52.084;5.412;2023-12-29T00:23:05;11.20;99.90
61912;DHT22;49973;52.084;5.412;2023-12-29T00:25:35;10.90;99.90
61912;DHT22;49973;52.084;5.412;2023-12-29T00:28:04;10.80;99.90
61912;DHT22;49973;52.084;5.412;2023-12-29T00:30:33;10.70;99.90
61912;DHT22;49973;52.084;5.412;2023-12-29T00:33:21;10.60;99.90
61912;DHT22;49973;52.084;5.412;2023-12-29T00:35:50;10.50;99.90
61912;DHT22;49973;52.084;5.412;2023-12-29T00:38:20;10.40;99.90
61912;DHT22;49973;52.084;5.412;2023-12-29T00:40:48;10.40;99.90
61912;DHT22;49973;52.084;5.412;2023-12-29T00:43:17;10.30;99.90
61912;DHT22;49973;52.084;5.412;2023-12-29T00:45:46;10.40;99.90
61912;DHT22;49973;52.084;5.412;2023-12-29T00:48:14;10.40;99.90
61912;DHT22;49973;52.084;5.412;2023-12-29T00:50:43;10.50;99.90
61912;DHT22;49973;52.084;5.412;2023-12-29T00:53:12;10.50;99.90
61912;DHT22;49973;52.084;5.412;2023-12-29T00:55:42;10.60;99.90
61912;DHT22;49973;52.084;5.412;2023-12-29T00:58:10;10.60;99.90
61912;DHT22;49973;52.084;5.412;2023-12-29T01:00:39;10.70;99.90
61912;DHT22;49973;52.084;5.412;2023-12-29T01:03:08;10.70;99.90
61912;DHT22;49973;52.084;5.412;2023-12-29T01:05:37;10.80;99.90
61912;DHT22;49973;52.084;5.412;2023-12-29T01:08:05;11.00;99.90
61912;DHT22;49973;52.084;5.412;2023-12-29T01:10:35;10.90;99.90
61912;DHT22;49973;52.084;5.412;2023-12-29T01:13:05;11.10;99.90
61912;DHT22;49973;52.084;5.412;2023-12-29T01:15:35;11.00;99.90
61912;DHT22;49973;52.084;5.412;2023-12-29T01:18:04;11.10;99.90
61912;DHT22;49973;52.084;5.412;2023-12-29T01:20:33;11.10;99.90
61912;DHT22;49973;52.084;5.412;2023-12-29T01:23:02;11.10;99.90
61912;DHT22;49973;52.084;5.412;2023-12-29T01:25:31;11.20;99.90
61912;DHT22;49973;52.084;5.412;2023-12-29T01:27:59;11.20;99.90
61912;DHT22;49973;52.084;5.412;2023-12-29T01:30:29;11.20;99.90
61912;DHT22;49973;52.084;5.412;2023-12-29T01:32:58;11.20;99.90
61912;DHT22;49973;52.084;5.412;2023-12-29T01:35:27;11.20;99.90
61912;DHT22;49973;52.084;5.412;2023-12-29T01:37:55;11.30;99.90
61912;DHT22;49973;52.084;5.412;2023-12-29T01:40:24;11.30;99.90
61912;DHT22;49973;52.084;5.412;2023-12-29T01:42:53;11.30;99.90
61912;DHT22;49973;52.084;5.412;2023-12-29T01:45:23;11.30;99.90
61912;DHT22;49973;52.084;5.412;2023-12-29T01:47:55;11.30;99.90
61912;DHT22;49973;52.084;5.412;2023-12-29T01:50:24;11.30;99.90
61912;DHT22;49973;52.084;5.412;2023-12-29T01:52:54;11.30;99.90
61912;DHT22;49973;52.084;5.412;2023-12-29T01:55:24;11.30;99.90
61912;DHT22;49973;52.084;5.412;2023-12-29T01:57:54;11.20;99.90
61912;DHT22;49973;52.084;5.412;2023-12-29T02:00:24;11.30;99.90
61912;DHT22;49973;52.084;5.412;2023-12-29T02:02:55;11.30;99.90
61912;DHT22;49973;52.084;5.412;2023-12-29T02:05:24;11.30;99.90
61912;DHT22;49973;52.084;5.412;2023-12-29T02:07:55;11.20;99.90
61912;DHT22;49973;52.084;5.412;2023-12-29T02:10:24;11.30;99.90
61912;DHT22;49973;52.084;5.412;2023-12-29T02:12:52;11.30;99.90
61912;DHT22;49973;52.084;5.412;2023-12-29T02:15:25;11.20;99.90
61912;DHT22;49973;52.084;5.412;2023-12-29T02:17:59;11.20;99.90
61912;DHT22;49973;52.084;5.412;2023-12-29T02:20:29;11.20;99.90
61912;DHT22;49973;52.084;5.412;2023-12-29T02:22:58;11.20;99.90
61912;DHT22;49973;52.084;5.412;2023-12-29T02:25:29;11.10;99.90
61912;DHT22;49973;52.084;5.412;2023-12-29T02:27:59;11.20;99.90
61912;DHT22;49973;52.084;5.412;2023-12-29T02:30:37;11.20;99.90
61912;DHT22;49973;52.084;5.412;2023-12-29T02:33:10;11.10;99.90
61912;DHT22;49973;52.084;5.412;2023-12-29T02:35:44;11.10;99.90
61912;DHT22;49973;52.084;5.412;2023-12-29T02:38:14;11.10;99.90
61912;DHT22;49973;52.084;5.412;2023-12-29T02:40:44;11.10;99.90
61912;DHT22;49973;52.084;5.412;2023-12-29T02:43:12;11.00;99.90
61912;DHT22;49973;52.084;5.412;2023-12-29T02:45:42;11.00;99.90
61912;DHT22;49973;52.084;5.412;2023-12-29T02:48:10;11.10;99.90
61912;DHT22;49973;52.084;5.412;2023-12-29T02:50:39;10.90;99.90
61912;DHT22;49973;52.084;5.412;2023-12-29T02:53:08;10.80;99.90
61912;DHT22;49973;52.084;5.412;2023-12-29T02:55:36;10.60;99.90
61912;DHT22;49973;52.084;5.412;2023-12-29T02:58:06;10.50;99.90
61912;DHT22;49973;52.084;5.412;2023-12-29T03:00:35;10.30;99.90
61912;DHT22;49973;52.084;5.412;2023-12-29T03:03:04;10.20;99.90
61912;DHT22;49973;52.084;5.412;2023-12-29T03:05:33;10.20;99.90
61912;DHT22;49973;52.084;5.412;2023-12-29T03:08:01;10.10;99.90
61912;DHT22;49973;52.084;5.412;2023-12-29T03:10:30;10.10;99.90
61912;DHT22;49973;52.084;5.412;2023-12-29T03:12:59;10.00;99.90
61912;DHT22;49973;52.084;5.412;2023-12-29T03:15:29;10.00;99.90
61912;DHT22;49973;52.084;5.412;2023-12-29T03:17:58;9.90;99.90
61912;DHT22;49973;52.084;5.412;2023-12-29T03:20:27;9.90;99.90
61912;DHT22;49973;52.084;5.412;2023-12-29T03:22:55;9.90;99.90
61912;DHT22;49973;52.084;5.412;2023-12-29T03:25:24;9.90;99.90
61912;DHT22;49973;52.084;5.412;2023-12-29T03:27:53;9.80;99.90
61912;DHT22;49973;52.084;5.412;2023-12-29T03:30:21;9.80;99.90
61912;DHT22;49973;52.084;5.412;2023-12-29T03:32:51;9.70;99.90
61912;DHT22;49973;52.084;5.412;2023-12-29T03:35:20;9.70;99.90
61912;DHT22;49973;52.084;5.412;2023-12-29T03:37:49;9.70;99.90
61912;DHT22;49973;52.084;5.412;2023-12-29T03:40:17;9.70;99.90
61912;DHT22;49973;52.084;5.412;2023-12-29T03:42:46;9.70;99.90
61912;DHT22;49973;52.084;5.412;2023-12-29T03:45:14;9.70;99.90
61912;DHT22;49973;52.084;5.412;2023-12-29T03:47:43;9.70;99.90
61912;DHT22;49973;52.084;5.412;2023-12-29T03:50:13;9.70;99.90
61912;DHT22;49973;52.084;5.412;2023-12-29T03:52:42;9.70;99.90
61912;DHT22;49973;52.084;5.412;2023-12-29T03:55:11;9.80;99.90
61912;DHT22;49973;52.084;5.412;2023-12-29T03:57:39;9.80;99.90
61912;DHT22;49973;52.084;5.412;2023-12-29T04:00:12;9.90;99.90
61912;DHT22;49973;52.084;5.412;2023-12-29T04:02:41;9.90;99.90
61912;DHT22;49973;52.084;5.412;2023-12-29T04:05:13;9.90;99.90
61912;DHT22;49973;52.084;5.412;2023-12-29T04:07:41;9.80;99.90
61912;DHT22;49973;52.084;5.412;2023-12-29T04:10:10;9.80;99.90
61912;DHT22;49973;52.084;5.412;2023-12-29T04:12:39;9.80;99.90
61912;DHT22;49973;52.084;5.412;2023-12-29T04:15:08;9.70;99.90
61912;DHT22;49973;52.084;5.412;2023-12-29T04:17:37;9.70;99.90
61912;DHT22;49973;52.084;5.412;2023-12-29T04:20:06;9.70;99.90
61912;DHT22;49973;52.084;5.412;2023-12-29T04:22:36;9.70;99.90
61912;DHT22;49973;52.084;5.412;2023-12-29T04:25:05;9.70;99.90
61912;DHT22;49973;52.084;5.412;2023-12-29T04:27:36;9.70;99.90
61912;DHT22;49973;52.084;5.412;2023-12-29T04:30:06;9.70;99.90
61912;DHT22;49973;52.084;5.412;2023-12-29T04:32:35;9.70;99.90
61912;DHT22;49973;52.084;5.412;2023-12-29T04:35:05;9.70;99.90
61912;DHT22;49973;52.084;5.412;2023-12-29T04:37:33;9.70;99.90
61912;DHT22;49973;52.084;5.412;2023-12-29T04:40:04;9.70;99.90
61912;DHT22;49973;52.084;5.412;2023-12-29T04:42:33;9.70;99.90
61912;DHT22;49973;52.084;5.412;2023-12-29T04:45:02;9.70;99.90
61912;DHT22;49973;52.084;5.412;2023-12-29T04:47:31;9.70;99.90
61912;DHT22;49973;52.084;5.412;2023-12-29T04:50:00;9.80;99.90
61912;DHT22;49973;52.084;5.412;2023-12-29T04:52:29;9.80;99.90
61912;DHT22;49973;52.084;5.412;2023-12-29T04:54:58;9.80;99.90
61912;DHT22;49973;52.084;5.412;2023-12-29T04:57:28;9.80;99.90
61912;DHT22;49973;52.084;5.412;2023-12-29T04:59:57;9.80;99.90
61912;DHT22;49973;52.084;5.412;2023-12-29T05:02:25;9.70;99.90
61912;DHT22;49973;52.084;5.412;2023-12-29T05:04:54;9.70;99.90
61912;DHT22;49973;52.084;5.412;2023-12-29T05:07:24;9.80;99.90
61912;DHT22;49973;52.084;5.412;2023-12-29T05:09:53;9.80;99.90
61912;DHT22;49973;52.084;5.412;2023-12-29T05:12:21;9.80;99.90
61912;DHT22;49973;52.084;5.412;2023-12-29T05:14:51;9.80;99.90
61912;DHT22;49973;52.084;5.412;2023-12-29T05:17:20;9.80;99.90
61912;DHT22;49973;52.084;5.412;2023-12-29T05:19:48;9.80;99.90
61912;DHT22;49973;52.084;5.412;2023-12-29T05:22:17;9.90;99.90
61912;DHT22;49973;52.084;5.412;2023-12-29T05:24:46;9.90;99.90
61912;DHT22;49973;52.084;5.412;2023-12-29T05:27:14;9.90;99.90
61912;DHT22;49973;52.084;5.412;2023-12-29T05:29:43;9.90;99.90
61912;DHT22;49973;52.084;5.412;2023-12-29T05:32:13;10.00;99.90
61912;DHT22;49973;52.084;5.412;2023-12-29T05:34:41;10.00;99.90
61912;DHT22;49973;52.084;5.412;2023-12-29T05:37:10;10.00;99.90
61912;DHT22;49973;52.084;5.412;2023-12-29T05:39:41;10.00;99.90
61912;DHT22;49973;52.084;5.412;2023-12-29T05:42:10;10.00;99.90
61912;DHT22;49973;52.084;5.412;2023-12-29T05:44:38;10.00;99.90
61912;DHT22;49973;52.084;5.412;2023-12-29T05:47:07;10.10;99.90
61912;DHT22;49973;52.084;5.412;2023-12-29T05:49:37;10.10;99.90
61912;DHT22;49973;52.084;5.412;2023-12-29T05:52:07;10.10;99.90
61912;DHT22;49973;52.084;5.412;2023-12-29T05:54:36;10.00;99.90
61912;DHT22;49973;52.084;5.412;2023-12-29T05:57:04;10.10;99.90
61912;DHT22;49973;52.084;5.412;2023-12-29T05:59:33;10.10;99.90
61912;DHT22;49973;52.084;5.412;2023-12-29T06:02:02;10.10;99.90
61912;DHT22;49973;52.084;5.412;2023-12-29T06:04:31;10.10;99.90
61912;DHT22;49973;52.084;5.412;2023-12-29T06:07:01;10.10;99.90
61912;DHT22;49973;52.084;5.412;2023-12-29T06:09:29;10.10;99.90
61912;DHT22;49973;52.084;5.412;2023-12-29T06:11:58;10.20;99.90
61912;DHT22;49973;52.084;5.412;2023-12-29T06:14:27;10.20;99.90
61912;DHT22;49973;52.084;5.412;2023-12-29T06:16:55;10.20;99.90
61912;DHT22;49973;52.084;5.412;2023-12-29T06:19:24;10.20;99.90
61912;DHT22;49973;52.084;5.412;2023-12-29T06:21:53;10.20;99.90
61912;DHT22;49973;52.084;5.412;2023-12-29T06:24:23;10.30;99.90
61912;DHT22;49973;52.084;5.412;2023-12-29T06:26:51;10.30;99.90
61912;DHT22;49973;52.084;5.412;2023-12-29T06:29:20;10.30;99.90
61912;DHT22;49973;52.084;5.412;2023-12-29T06:31:49;10.30;99.90
61912;DHT22;49973;52.084;5.412;2023-12-29T06:34:17;10.30;99.90
61912;DHT22;49973;52.084;5.412;2023-12-29T06:36:46;10.30;99.90
61912;DHT22;49973;52.084;5.412;2023-12-29T06:39:15;10.30;99.90
61912;DHT22;49973;52.084;5.412;2023-12-29T06:41:45;10.30;99.90
61912;DHT22;49973;52.084;5.412;2023-12-29T06:44:14;10.30;99.90
61912;DHT22;49973;52.084;5.412;2023-12-29T06:46:42;10.40;99.90
61912;DHT22;49973;52.084;5.412;2023-12-29T06:49:11;10.40;99.90
61912;DHT22;49973;52.084;5.412;2023-12-29T06:51:40;10.40;99.90
61912;DHT22;49973;52.084;5.412;2023-12-29T06:54:08;10.40;99.90
61912;DHT22;49973;52.084;5.412;2023-12-29T06:56:37;10.40;99.90
61912;DHT22;49973;52.084;5.412;2023-12-29T06:59:08;10.40;99.90
61912;DHT22;49973;52.084;5.412;2023-12-29T07:01:38;10.40;99.90
61912;DHT22;49973;52.084;5.412;2023-12-29T07:04:08;10.50;99.90
61912;DHT22;49973;52.084;5.412;2023-12-29T07:06:38;10.40;99.90
61912;DHT22;49973;52.084;5.412;2023-12-29T07:09:07;10.40;99.90
61912;DHT22;49973;52.084;5.412;2023-12-29T07:11:36;10.40;99.90
61912;DHT22;49973;52.084;5.412;2023-12-29T07:14:05;10.40;99.90
61912;DHT22;49973;52.084;5.412;2023-12-29T07:16:35;10.40;99.90
61912;DHT22;49973;52.084;5.412;2023-12-29T07:19:04;10.40;99.90
61912;DHT22;49973;52.084;5.412;2023-12-29T07:21:33;10.40;99.90
61912;DHT22;49973;52.084;5.412;2023-12-29T07:24:03;10.40;99.90
61912;DHT22;49973;52.084;5.412;2023-12-29T07:26:32;10.40;99.90
61912;DHT22;49973;52.084;5.412;2023-12-29T07:29:03;10.40;99.90
61912;DHT22;49973;52.084;5.412;2023-12-29T07:31:35;10.40;99.90
61912;DHT22;49973;52.084;5.412;2023-12-29T07:34:06;10.40;99.90
61912;DHT22;49973;52.084;5.412;2023-12-29T07:36:38;10.40;99.90
61912;DHT22;49973;52.084;5.412;2023-12-29T07:39:07;10.40;99.90
61912;DHT22;49973;52.084;5.412;2023-12-29T07:41:39;10.40;99.90
61912;DHT22;49973;52.084;5.412;2023-12-29T07:44:10;10.40;99.90
61912;DHT22;49973;52.084;5.412;2023-12-29T07:46:40;10.40;99.90
61912;DHT22;49973;52.084;5.412;2023-12-29T07:49:09;10.30;99.90
61912;DHT22;49973;52.084;5.412;2023-12-29T07:51:39;10.30;99.90
61912;DHT22;49973;52.084;5.412;2023-12-29T07:54:08;10.30;99.90
61912;DHT22;49973;52.084;5.412;2023-12-29T07:56:37;10.20;99.90
61912;DHT22;49973;52.084;5.412;2023-12-29T07:59:05;10.20;99.90
61912;DHT22;49973;52.084;5.412;2023-12-29T08:01:34;10.20;99.90
61912;DHT22;49973;52.084;5.412;2023-12-29T08:04:06;10.20;99.90
61912;DHT22;49973;52.084;5.412;2023-12-29T08:06:38;10.10;99.90
61912;DHT22;49973;52.084;5.412;2023-12-29T08:09:07;10.10;99.90
61912;DHT22;49973;52.084;5.412;2023-12-29T08:11:35;10.10;99.90
61912;DHT22;49973;52.084;5.412;2023-12-29T08:14:04;10.30;99.90
61912;DHT22;49973;52.084;5.412;2023-12-29T08:16:38;10.20;99.90
61912;DHT22;49973;52.084;5.412;2023-12-29T08:19:08;10.20;99.90
61912;DHT22;49973;52.084;5.412;2023-12-29T08:21:37;10.20;99.90
61912;DHT22;49973;52.084;5.412;2023-12-29T08:24:06;10.20;99.90
61912;DHT22;49973;52.084;5.412;2023-12-29T08:26:43;10.30;99.90
61912;DHT22;49973;52.084;5.412;2023-12-29T08:29:12;10.30;99.90
61912;DHT22;49973;52.084;5.412;2023-12-29T08:31:41;10.30;99.90
61912;DHT22;49973;52.084;5.412;2023-12-29T08:34:11;10.30;99.90
61912;DHT22;49973;52.084;5.412;2023-12-29T08:36:40;10.20;99.90
61912;DHT22;49973;52.084;5.412;2023-12-29T08:39:09;10.30;99.90
61912;DHT22;49973;52.084;5.412;2023-12-29T08:41:39;10.30;99.90
61912;DHT22;49973;52.084;5.412;2023-12-29T08:44:07;10.30;99.90
61912;DHT22;49973;52.084;5.412;2023-12-29T08:46:36;10.30;99.90
61912;DHT22;49973;52.084;5.412;2023-12-29T08:49:05;10.30;99.90
61912;DHT22;49973;52.084;5.412;2023-12-29T08:51:36;10.30;99.90
61912;DHT22;49973;52.084;5.412;2023-12-29T08:54:05;10.20;99.90
61912;DHT22;49973;52.084;5.412;2023-12-29T08:56:34;10.20;99.90
61912;DHT22;49973;52.084;5.412;2023-12-29T08:59:02;10.20;99.90
61912;DHT22;49973;52.084;5.412;2023-12-29T09:01:31;10.20;99.90
61912;DHT22;49973;52.084;5.412;2023-12-29T09:04:01;10.10;99.90
61912;DHT22;49973;52.084;5.412;2023-12-29T09:06:29;10.10;99.90
61912;DHT22;49973;52.084;5.412;2023-12-29T09:08:59;10.00;99.90
61912;DHT22;49973;52.084;5.412;2023-12-29T09:11:28;10.00;99.90
61912;DHT22;49973;52.084;5.412;2023-12-29T09:13:57;10.00;99.90
61912;DHT22;49973;52.084;5.412;2023-12-29T09:16:26;10.00;99.90
61912;DHT22;49973;52.084;5.412;2023-12-29T09:18:54;10.00;99.90
61912;DHT22;49973;52.084;5.412;2023-12-29T09:21:23;10.10;99.90
61912;DHT22;49973;52.084;5.412;2023-12-29T09:23:51;10.10;99.90
61912;DHT22;49973;52.084;5.412;2023-12-29T09:26:22;10.10;99.90
61912;DHT22;49973;52.084;5.412;2023-12-29T09:28:50;10.10;99.90
61912;DHT22;49973;52.084;5.412;2023-12-29T09:31:19;10.20;99.90
61912;DHT22;49973;52.084;5.412;2023-12-29T09:33:48;10.20;99.90
61912;DHT22;49973;52.084;5.412;2023-12-29T09:36:16;10.20;99.90
61912;DHT22;49973;52.084;5.412;2023-12-29T09:38:45;10.40;99.90
61912;DHT22;49973;52.084;5.412;2023-12-29T09:41:15;10.40;99.90
61912;DHT22;49973;52.084;5.412;2023-12-29T09:43:47;10.40;99.90
61912;DHT22;49973;52.084;5.412;2023-12-29T09:46:17;10.60;99.90
61912;DHT22;49973;52.084;5.412;2023-12-29T09:48:47;10.60;99.90
61912;DHT22;49973;52.084;5.412;2023-12-29T09:51:16;10.60;99.90
61912;DHT22;49973;52.084;5.412;2023-12-29T09:53:50;10.70;99.90
61912;DHT22;49973;52.084;5.412;2023-12-29T09:56:20;10.70;99.90
61912;DHT22;49973;52.084;5.412;2023-12-29T09:58:51;10.80;99.90
61912;DHT22;49973;52.084;5.412;2023-12-29T10:01:21;10.90;99.90
61912;DHT22;49973;52.084;5.412;2023-12-29T10:03:50;10.90;99.90
61912;DHT22;49973;52.084;5.412;2023-12-29T10:06:21;11.00;99.90
61912;DHT22;49973;52.084;5.412;2023-12-29T10:08:51;11.00;99.90
61912;DHT22;49973;52.084;5.412;2023-12-29T10:11:22;11.00;99.90
61912;DHT22;49973;52.084;5.412;2023-12-29T10:13:54;11.00;99.90
61912;DHT22;49973;52.084;5.412;2023-12-29T10:16:27;11.10;99.90
61912;DHT22;49973;52.084;5.412;2023-12-29T10:19:16;11.20;99.90
61912;DHT22;49973;52.084;5.412;2023-12-29T10:21:52;11.10;99.90
61912;DHT22;49973;52.084;5.412;2023-12-29T10:24:23;11.30;99.90
61912;DHT22;49973;52.084;5.412;2023-12-29T10:26:51;11.30;99.90
61912;DHT22;49973;52.084;5.412;2023-12-29T10:29:23;11.40;99.90
61912;DHT22;49973;52.084;5.412;2023-12-29T10:31:52;11.40;99.90
61912;DHT22;49973;52.084;5.412;2023-12-29T10:34:22;11.40;99.90
61912;DHT22;49973;52.084;5.412;2023-12-29T10:36:57;11.40;99.90
61912;DHT22;49973;52.084;5.412;2023-12-29T10:39:25;11.40;99.90
61912;DHT22;49973;52.084;5.412;2023-12-29T10:42:03;11.40;99.90
61912;DHT22;49973;52.084;5.412;2023-12-29T10:44:35;11.40;99.90
61912;DHT22;49973;52.084;5.412;2023-12-29T10:47:08;11.40;99.90
61912;DHT22;49973;52.084;5.412;2023-12-29T10:49:37;11.40;99.90
61912;DHT22;49973;52.084;5.412;2023-12-29T10:52:13;11.50;99.90
61912;DHT22;49973;52.084;5.412;2023-12-29T10:54:42;11.50;99.90
61912;DHT22;49973;52.084;5.412;2023-12-29T10:57:12;11.50;99.90
61912;DHT22;49973;52.084;5.412;2023-12-29T10:59:42;11.50;99.90
61912;DHT22;49973;52.084;5.412;2023-12-29T11:02:12;11.50;99.90
61912;DHT22;49973;52.084;5.412;2023-12-29T11:04:43;11.50;99.90
61912;DHT22;49973;52.084;5.412;2023-12-29T11:07:12;11.50;99.90
61912;DHT22;49973;52.084;5.412;2023-12-29T11:09:41;11.60;99.90
61912;DHT22;49973;52.084;5.412;2023-12-29T11:12:11;11.50;99.90
61912;DHT22;49973;52.084;5.412;2023-12-29T11:14:43;11.50;99.90
61912;DHT22;49973;52.084;5.412;2023-12-29T11:17:16;11.50;99.90
61912;DHT22;49973;52.084;5.412;2023-12-29T11:19:46;11.50;99.90
61912;DHT22;49973;52.084;5.412;2023-12-29T11:22:17;11.50;99.90
61912;DHT22;49973;52.084;5.412;2023-12-29T11:24:46;11.50;99.90
61912;DHT22;49973;52.084;5.412;2023-12-29T11:27:16;11.50;99.90
61912;DHT22;49973;52.084;5.412;2023-12-29T11:29:47;11.60;99.90
61912;DHT22;49973;52.084;5.412;2023-12-29T11:32:19;11.60;99.90
61912;DHT22;49973;52.084;5.412;2023-12-29T11:34:53;11.80;99.90
61912;DHT22;49973;52.084;5.412;2023-12-29T11:37:32;11.60;99.90
61912;DHT22;49973;52.084;5.412;2023-12-29T11:40:11;11.70;99.90
61912;DHT22;49973;52.084;5.412;2023-12-29T11:42:44;11.70;99.90
61912;DHT22;49973;52.084;5.412;2023-12-29T11:45:29;11.70;99.90
61912;DHT22;49973;52.084;5.412;2023-12-29T11:47:59;11.70;99.90
61912;DHT22;49973;52.084;5.412;2023-12-29T11:50:31;11.80;99.90
61912;DHT22;49973;52.084;5.412;2023-12-29T11:53:00;11.70;99.90
61912;DHT22;49973;52.084;5.412;2023-12-29T11:55:31;11.80;99.90
61912;DHT22;49973;52.084;5.412;2023-12-29T11:58:03;11.70;99.90
61912;DHT22;49973;52.084;5.412;2023-12-29T12:00:44;11.70;99.90
61912;DHT22;49973;52.084;5.412;2023-12-29T12:03:18;11.70;99.90
61912;DHT22;49973;52.084;5.412;2023-12-29T12:05:49;11.80;99.90
61912;DHT22;49973;52.084;5.412;2023-12-29T12:08:29;11.80;99.90
61912;DHT22;49973;52.084;5.412;2023-12-29T12:14:05;11.80;99.90
61912;DHT22;49973;52.084;5.412;2023-12-29T12:16:51;11.80;99.90
61912;DHT22;49973;52.084;5.412;2023-12-29T12:19:21;11.80;99.90
61912;DHT22;49973;52.084;5.412;2023-12-29T12:21:53;11.80;99.90
61912;DHT22;49973;52.084;5.412;2023-12-29T12:24:23;11.80;99.90
61912;DHT22;49973;52.084;5.412;2023-12-29T12:26:54;11.80;99.90
61912;DHT22;49973;52.084;5.412;2023-12-29T12:29:23;11.80;99.90
61912;DHT22;49973;52.084;5.412;2023-12-29T12:31:54;11.90;99.90
61912;DHT22;49973;52.084;5.412;2023-12-29T12:34:23;11.90;99.90
61912;DHT22;49973;52.084;5.412;2023-12-29T12:36:54;11.90;99.90
61912;DHT22;49973;52.084;5.412;2023-12-29T12:39:38;11.90;99.90
61912;DHT22;49973;52.084;5.412;2023-12-29T12:42:07;11.90;99.90
61912;DHT22;49973;52.084;5.412;2023-12-29T12:44:39;11.90;99.90
61912;DHT22;49973;52.084;5.412;2023-12-29T12:47:15;12.00;99.90
61912;DHT22;49973;52.084;5.412;2023-12-29T12:49:46;11.90;99.90
61912;DHT22;49973;52.084;5.412;2023-12-29T12:52:15;11.90;99.90
61912;DHT22;49973;52.084;5.412;2023-12-29T12:54:44;11.90;99.90
61912;DHT22;49973;52.084;5.412;2023-12-29T12:57:17;11.90;99.90
61912;DHT22;49973;52.084;5.412;2023-12-29T12:59:46;11.90;99.90
61912;DHT22;49973;52.084;5.412;2023-12-29T13:02:17;11.90;99.90
61912;DHT22;49973;52.084;5.412;2023-12-29T13:04:47;11.90;99.90
61912;DHT22;49973;52.084;5.412;2023-12-29T13:07:18;12.00;99.90
61912;DHT22;49973;52.084;5.412;2023-12-29T13:09:47;12.00;99.90
61912;DHT22;49973;52.084;5.412;2023-12-29T13:12:18;12.00;99.90
61912;DHT22;49973;52.084;5.412;2023-12-29T13:14:46;12.00;99.90
61912;DHT22;49973;52.084;5.412;2023-12-29T13:17:17;12.00;99.90
61912;DHT22;49973;52.084;5.412;2023-12-29T13:19:56;12.00;99.90
61912;DHT22;49973;52.084;5.412;2023-12-29T13:22:25;12.00;99.90
61912;DHT22;49973;52.084;5.412;2023-12-29T13:24:56;12.10;99.90
61912;DHT22;49973;52.084;5.412;2023-12-29T13:27:24;11.90;99.90
61912;DHT22;49973;52.084;5.412;2023-12-29T13:29:53;11.90;99.90
61912;DHT22;49973;52.084;5.412;2023-12-29T13:32:26;11.90;99.90
61912;DHT22;49973;52.084;5.412;2023-12-29T13:35:03;11.80;99.90
61912;DHT22;49973;52.084;5.412;2023-12-29T13:37:36;11.80;99.90
61912;DHT22;49973;52.084;5.412;2023-12-29T13:40:11;11.80;99.90
61912;DHT22;49973;52.084;5.412;2023-12-29T13:42:43;11.80;99.90
61912;DHT22;49973;52.084;5.412;2023-12-29T13:45:13;11.80;99.90
61912;DHT22;49973;52.084;5.412;2023-12-29T13:47:46;11.70;99.90
61912;DHT22;49973;52.084;5.412;2023-12-29T13:50:15;11.80;99.90
61912;DHT22;49973;52.084;5.412;2023-12-29T13:52:43;11.80;99.90
61912;DHT22;49973;52.084;5.412;2023-12-29T13:55:12;11.80;99.90
61912;DHT22;49973;52.084;5.412;2023-12-29T13:57:40;11.80;99.90
61912;DHT22;49973;52.084;5.412;2023-12-29T14:00:19;11.80;99.90
61912;DHT22;49973;52.084;5.412;2023-12-29T14:02:58;11.80;99.90
61912;DHT22;49973;52.084;5.412;2023-12-29T14:05:35;11.90;99.90
61912;DHT22;49973;52.084;5.412;2023-12-29T14:08:09;11.70;99.90
61912;DHT22;49973;52.084;5.412;2023-12-29T14:10:38;11.70;99.90
61912;DHT22;49973;52.084;5.412;2023-12-29T14:13:07;11.90;99.90
61912;DHT22;49973;52.084;5.412;2023-12-29T14:15:37;11.80;99.90
61912;DHT22;49973;52.084;5.412;2023-12-29T14:18:21;11.80;99.90
61912;DHT22;49973;52.084;5.412;2023-12-29T14:20:52;11.70;99.90
61912;DHT22;49973;52.084;5.412;2023-12-29T14:23:21;11.90;99.90
61912;DHT22;49973;52.084;5.412;2023-12-29T14:25:49;11.80;99.90
61912;DHT22;49973;52.084;5.412;2023-12-29T14:28:19;11.70;99.90
61912;DHT22;49973;52.084;5.412;2023-12-29T14:30:49;11.60;99.90
61912;DHT22;49973;52.084;5.412;2023-12-29T14:33:19;11.60;99.90
61912;DHT22;49973;52.084;5.412;2023-12-29T14:35:48;11.60;99.90
61912;DHT22;49973;52.084;5.412;2023-12-29T14:38:16;11.50;99.90
61912;DHT22;49973;52.084;5.412;2023-12-29T14:40:46;11.50;99.90
61912;DHT22;49973;52.084;5.412;2023-12-29T14:43:15;11.50;99.90
61912;DHT22;49973;52.084;5.412;2023-12-29T14:45:44;11.40;99.90
61912;DHT22;49973;52.084;5.412;2023-12-29T14:48:13;11.40;99.90
61912;DHT22;49973;52.084;5.412;2023-12-29T14:50:43;11.40;99.90
61912;DHT22;49973;52.084;5.412;2023-12-29T14:53:13;11.40;99.90
61912;DHT22;49973;52.084;5.412;2023-12-29T14:55:42;11.40;99.90
61912;DHT22;49973;52.084;5.412;2023-12-29T14:58:12;11.40;99.90
61912;DHT22;49973;52.084;5.412;2023-12-29T15:00:43;11.40;99.90
61912;DHT22;49973;52.084;5.412;2023-12-29T15:03:14;11.30;99.90
61912;DHT22;49973;52.084;5.412;2023-12-29T15:05:45;11.30;99.90
61912;DHT22;49973;52.084;5.412;2023-12-29T15:08:14;11.20;99.90
61912;DHT22;49973;52.084;5.412;2023-12-29T15:10:43;11.10;99.90
61912;DHT22;49973;52.084;5.412;2023-12-29T15:13:12;11.00;99.90
61912;DHT22;49973;52.084;5.412;2023-12-29T15:15:41;10.70;99.90
61912;DHT22;49973;52.084;5.412;2023-12-29T15:18:10;10.60;99.90
61912;DHT22;49973;52.084;5.412;2023-12-29T15:20:38;10.40;99.90
61912;DHT22;49973;52.084;5.412;2023-12-29T15:23:08;10.20;99.90
61912;DHT22;49973;52.084;5.412;2023-12-29T15:25:37;9.90;99.90
61912;DHT22;49973;52.084;5.412;2023-12-29T15:28:06;9.70;99.90
61912;DHT22;49973;52.084;5.412;2023-12-29T15:30:34;9.60;99.90
61912;DHT22;49973;52.084;5.412;2023-12-29T15:33:03;9.50;99.90
61912;DHT22;49973;52.084;5.412;2023-12-29T15:35:32;9.40;99.90
61912;DHT22;49973;52.084;5.412;2023-12-29T15:38:00;9.30;99.90
61912;DHT22;49973;52.084;5.412;2023-12-29T15:40:31;9.20;99.90
61912;DHT22;49973;52.084;5.412;2023-12-29T15:43:00;9.20;99.90
61912;DHT22;49973;52.084;5.412;2023-12-29T15:45:30;9.20;99.90
61912;DHT22;49973;52.084;5.412;2023-12-29T15:47:59;9.20;99.90
61912;DHT22;49973;52.084;5.412;2023-12-29T15:50:28;9.20;99.90
61912;DHT22;49973;52.084;5.412;2023-12-29T15:52:57;9.20;99.90